sensor_id;sensor_type;location;lat;lon;timestamp;P1;durP1;ratioP1;P2;durP2;ratioP2
79027;SDS011;68427;48.476;19.102;2023-04-03T00:02:20;8.35;;;7.65;;
79027;SDS011;68427;48.476;19.102;2023-04-03T00:04:45;8.60;;;7.82;;
79027;SDS011;68427;48.476;19.102;2023-04-03T00:07:11;7.97;;;7.45;;
79027;SDS011;68427;48.476;19.102;2023-04-03T00:09:37;8.50;;;7.80;;
79027;SDS011;68427;48.476;19.102;2023-04-03T00:12:04;8.27;;;7.47;;
79027;SDS011;68427;48.476;19.102;2023-04-03T00:14:30;7.40;;;6.75;;
79027;SDS011;68427;48.476;19.102;2023-04-03T00:16:56;7.22;;;6.70;;
79027;SDS011;68427;48.476;19.102;2023-04-03T00:19:22;8.98;;;8.25;;
79027;SDS011;68427;48.476;19.102;2023-04-03T00:21:47;7.18;;;6.75;;
79027;SDS011;68427;48.476;19.102;2023-04-03T00:24:13;7.63;;;6.63;;
79027;SDS011;68427;48.476;19.102;2023-04-03T00:26:39;7.97;;;7.30;;
79027;SDS011;68427;48.476;19.102;2023-04-03T00:29:06;4.38;;;3.53;;
79027;SDS011;68427;48.476;19.102;2023-04-03T00:31:31;7.57;;;6.97;;
79027;SDS011;68427;48.476;19.102;2023-04-03T00:33:57;8.60;;;7.88;;
79027;SDS011;68427;48.476;19.102;2023-04-03T00:36:23;10.13;;;9.43;;
79027;SDS011;68427;48.476;19.102;2023-04-03T00:38:49;7.88;;;7.38;;
79027;SDS011;68427;48.476;19.102;2023-04-03T00:41:15;9.10;;;8.40;;
79027;SDS011;68427;48.476;19.102;2023-04-03T00:43:41;5.35;;;3.03;;
79027;SDS011;68427;48.476;19.102;2023-04-03T00:46:08;7.88;;;7.28;;
79027;SDS011;68427;48.476;19.102;2023-04-03T00:48:34;9.98;;;9.18;;
79027;SDS011;68427;48.476;19.102;2023-04-03T00:51:05;7.90;;;7.38;;
79027;SDS011;68427;48.476;19.102;2023-04-03T00:53:33;7.68;;;7.07;;
79027;SDS011;68427;48.476;19.102;2023-04-03T00:56:02;5.32;;;3.13;;
79027;SDS011;68427;48.476;19.102;2023-04-03T00:58:32;5.20;;;2.80;;
79027;SDS011;68427;48.476;19.102;2023-04-03T01:01:03;10.80;;;10.13;;
79027;SDS011;68427;48.476;19.102;2023-04-03T01:03:33;8.43;;;7.72;;
79027;SDS011;68427;48.476;19.102;2023-04-03T01:05:59;8.30;;;7.50;;
79027;SDS011;68427;48.476;19.102;2023-04-03T01:08:25;7.22;;;6.63;;
79027;SDS011;68427;48.476;19.102;2023-04-03T01:10:51;7.82;;;7.18;;
79027;SDS011;68427;48.476;19.102;2023-04-03T01:13:17;7.00;;;6.50;;
79027;SDS011;68427;48.476;19.102;2023-04-03T01:15:48;6.88;;;6.35;;
79027;SDS011;68427;48.476;19.102;2023-04-03T01:18:14;9.05;;;8.30;;
79027;SDS011;68427;48.476;19.102;2023-04-03T01:20:49;8.77;;;8.07;;
79027;SDS011;68427;48.476;19.102;2023-04-03T01:26:36;8.77;;;8.10;;
79027;SDS011;68427;48.476;19.102;2023-04-03T01:29:02;7.95;;;7.40;;
79027;SDS011;68427;48.476;19.102;2023-04-03T01:31:30;9.10;;;8.55;;
79027;SDS011;68427;48.476;19.102;2023-04-03T01:34:05;8.35;;;7.75;;
79027;SDS011;68427;48.476;19.102;2023-04-03T01:36:31;8.18;;;7.45;;
79027;SDS011;68427;48.476;19.102;2023-04-03T01:38:57;7.65;;;7.13;;
79027;SDS011;68427;48.476;19.102;2023-04-03T01:41:25;8.50;;;7.88;;
79027;SDS011;68427;48.476;19.102;2023-04-03T01:43:51;8.02;;;7.43;;
79027;SDS011;68427;48.476;19.102;2023-04-03T01:46:17;7.97;;;7.20;;
79027;SDS011;68427;48.476;19.102;2023-04-03T01:48:45;9.20;;;8.70;;
79027;SDS011;68427;48.476;19.102;2023-04-03T01:51:11;3.80;;;2.90;;
79027;SDS011;68427;48.476;19.102;2023-04-03T01:53:36;8.00;;;7.30;;
79027;SDS011;68427;48.476;19.102;2023-04-03T01:56:02;7.10;;;6.60;;
79027;SDS011;68427;48.476;19.102;2023-04-03T01:58:28;8.85;;;8.25;;
79027;SDS011;68427;48.476;19.102;2023-04-03T02:00:54;7.90;;;7.20;;
79027;SDS011;68427;48.476;19.102;2023-04-03T02:03:20;9.30;;;8.63;;
79027;SDS011;68427;48.476;19.102;2023-04-03T02:05:48;9.30;;;8.65;;
79027;SDS011;68427;48.476;19.102;2023-04-03T02:08:15;14.77;;;13.82;;
79027;SDS011;68427;48.476;19.102;2023-04-03T02:13:08;5.43;;;2.47;;
79027;SDS011;68427;48.476;19.102;2023-04-03T02:15:37;9.93;;;9.25;;
79027;SDS011;68427;48.476;19.102;2023-04-03T02:18:03;6.80;;;6.38;;
79027;SDS011;68427;48.476;19.102;2023-04-03T02:20:28;7.40;;;6.90;;
79027;SDS011;68427;48.476;19.102;2023-04-03T02:22:56;7.63;;;7.13;;
79027;SDS011;68427;48.476;19.102;2023-04-03T02:25:21;7.25;;;6.65;;
79027;SDS011;68427;48.476;19.102;2023-04-03T02:27:47;6.72;;;6.22;;
79027;SDS011;68427;48.476;19.102;2023-04-03T02:30:13;8.18;;;7.60;;
79027;SDS011;68427;48.476;19.102;2023-04-03T02:32:39;3.03;;;2.30;;
79027;SDS011;68427;48.476;19.102;2023-04-03T02:35:06;8.02;;;7.38;;
79027;SDS011;68427;48.476;19.102;2023-04-03T02:37:32;5.72;;;3.25;;
79027;SDS011;68427;48.476;19.102;2023-04-03T02:39:59;11.25;;;10.57;;
79027;SDS011;68427;48.476;19.102;2023-04-03T02:42:25;8.50;;;8.00;;
79027;SDS011;68427;48.476;19.102;2023-04-03T02:44:51;3.55;;;2.75;;
79027;SDS011;68427;48.476;19.102;2023-04-03T02:47:17;8.27;;;7.57;;
79027;SDS011;68427;48.476;19.102;2023-04-03T02:49:42;9.60;;;9.00;;
79027;SDS011;68427;48.476;19.102;2023-04-03T02:52:11;8.40;;;7.80;;
79027;SDS011;68427;48.476;19.102;2023-04-03T02:54:37;8.13;;;7.53;;
79027;SDS011;68427;48.476;19.102;2023-04-03T02:57:04;3.65;;;2.25;;
79027;SDS011;68427;48.476;19.102;2023-04-03T02:59:30;4.50;;;2.63;;
79027;SDS011;68427;48.476;19.102;2023-04-03T03:01:56;3.40;;;2.42;;
79027;SDS011;68427;48.476;19.102;2023-04-03T03:04:22;13.15;;;12.27;;
79027;SDS011;68427;48.476;19.102;2023-04-03T03:06:47;8.98;;;8.45;;
79027;SDS011;68427;48.476;19.102;2023-04-03T03:09:13;3.00;;;1.90;;
79027;SDS011;68427;48.476;19.102;2023-04-03T03:11:39;2.85;;;2.20;;
79027;SDS011;68427;48.476;19.102;2023-04-03T03:14:06;8.07;;;7.57;;
79027;SDS011;68427;48.476;19.102;2023-04-03T03:16:32;3.90;;;2.45;;
79027;SDS011;68427;48.476;19.102;2023-04-03T03:18:58;3.30;;;2.05;;
79027;SDS011;68427;48.476;19.102;2023-04-03T03:21:24;7.85;;;7.28;;
79027;SDS011;68427;48.476;19.102;2023-04-03T03:23:51;7.80;;;7.30;;
79027;SDS011;68427;48.476;19.102;2023-04-03T03:26:16;3.67;;;3.05;;
79027;SDS011;68427;48.476;19.102;2023-04-03T03:28:42;5.25;;;3.40;;
79027;SDS011;68427;48.476;19.102;2023-04-03T03:31:09;11.10;;;10.27;;
79027;SDS011;68427;48.476;19.102;2023-04-03T03:33:35;4.78;;;4.38;;
79027;SDS011;68427;48.476;19.102;2023-04-03T03:36:01;2.22;;;1.73;;
79027;SDS011;68427;48.476;19.102;2023-04-03T03:38:27;2.03;;;1.52;;
79027;SDS011;68427;48.476;19.102;2023-04-03T03:40:53;6.72;;;6.22;;
79027;SDS011;68427;48.476;19.102;2023-04-03T03:43:18;6.32;;;5.93;;
79027;SDS011;68427;48.476;19.102;2023-04-03T03:45:46;6.82;;;6.53;;
79027;SDS011;68427;48.476;19.102;2023-04-03T03:48:17;2.85;;;2.60;;
79027;SDS011;68427;48.476;19.102;2023-04-03T03:50:43;1.48;;;1.15;;
79027;SDS011;68427;48.476;19.102;2023-04-03T03:53:08;1.70;;;1.60;;
79027;SDS011;68427;48.476;19.102;2023-04-03T03:55:34;5.32;;;5.03;;
79027;SDS011;68427;48.476;19.102;2023-04-03T03:58:00;6.28;;;5.88;;
79027;SDS011;68427;48.476;19.102;2023-04-03T04:00:27;1.45;;;1.35;;
79027;SDS011;68427;48.476;19.102;2023-04-03T04:02:53;1.20;;;1.05;;
79027;SDS011;68427;48.476;19.102;2023-04-03T04:05:20;4.68;;;4.47;;
79027;SDS011;68427;48.476;19.102;2023-04-03T04:07:45;4.53;;;4.35;;
79027;SDS011;68427;48.476;19.102;2023-04-03T04:10:11;5.75;;;5.55;;
79027;SDS011;68427;48.476;19.102;2023-04-03T04:12:38;0.90;;;0.90;;
79027;SDS011;68427;48.476;19.102;2023-04-03T04:15:05;1.17;;;1.17;;
79027;SDS011;68427;48.476;19.102;2023-04-03T04:17:31;6.25;;;5.95;;
79027;SDS011;68427;48.476;19.102;2023-04-03T04:19:57;2.22;;;1.55;;
79027;SDS011;68427;48.476;19.102;2023-04-03T04:22:24;1.17;;;1.17;;
79027;SDS011;68427;48.476;19.102;2023-04-03T04:24:49;0.90;;;0.90;;
79027;SDS011;68427;48.476;19.102;2023-04-03T04:27:15;5.20;;;5.00;;
79027;SDS011;68427;48.476;19.102;2023-04-03T04:29:41;0.60;;;0.60;;
79027;SDS011;68427;48.476;19.102;2023-04-03T04:32:07;4.57;;;4.43;;
79027;SDS011;68427;48.476;19.102;2023-04-03T04:34:33;1.42;;;1.33;;
79027;SDS011;68427;48.476;19.102;2023-04-03T04:37:00;5.35;;;5.15;;
79027;SDS011;68427;48.476;19.102;2023-04-03T04:39:27;1.17;;;1.13;;
79027;SDS011;68427;48.476;19.102;2023-04-03T04:41:52;4.95;;;4.75;;
79027;SDS011;68427;48.476;19.102;2023-04-03T04:44:18;4.78;;;4.57;;
79027;SDS011;68427;48.476;19.102;2023-04-03T04:46:45;0.82;;;0.82;;
79027;SDS011;68427;48.476;19.102;2023-04-03T04:49:10;5.30;;;5.10;;
79027;SDS011;68427;48.476;19.102;2023-04-03T04:51:36;2.88;;;2.78;;
79027;SDS011;68427;48.476;19.102;2023-04-03T04:54:02;4.53;;;4.40;;
79027;SDS011;68427;48.476;19.102;2023-04-03T04:56:29;6.10;;;5.88;;
79027;SDS011;68427;48.476;19.102;2023-04-03T04:58:55;6.82;;;6.53;;
79027;SDS011;68427;48.476;19.102;2023-04-03T05:01:20;2.60;;;2.47;;
79027;SDS011;68427;48.476;19.102;2023-04-03T05:03:46;5.15;;;4.95;;
79027;SDS011;68427;48.476;19.102;2023-04-03T05:06:13;5.85;;;5.65;;
79027;SDS011;68427;48.476;19.102;2023-04-03T05:08:38;6.35;;;6.15;;
79027;SDS011;68427;48.476;19.102;2023-04-03T05:11:04;5.57;;;5.38;;
79027;SDS011;68427;48.476;19.102;2023-04-03T05:13:31;4.47;;;4.35;;
79027;SDS011;68427;48.476;19.102;2023-04-03T05:15:57;5.18;;;4.97;;
79027;SDS011;68427;48.476;19.102;2023-04-03T05:18:23;7.03;;;6.72;;
79027;SDS011;68427;48.476;19.102;2023-04-03T05:20:49;2.22;;;2.17;;
79027;SDS011;68427;48.476;19.102;2023-04-03T05:23:18;5.53;;;5.32;;
79027;SDS011;68427;48.476;19.102;2023-04-03T05:25:44;4.82;;;4.63;;
79027;SDS011;68427;48.476;19.102;2023-04-03T05:28:12;5.68;;;5.47;;
79027;SDS011;68427;48.476;19.102;2023-04-03T05:30:39;7.28;;;7.07;;
79027;SDS011;68427;48.476;19.102;2023-04-03T05:33:05;5.28;;;5.07;;
79027;SDS011;68427;48.476;19.102;2023-04-03T05:35:31;2.00;;;1.90;;
79027;SDS011;68427;48.476;19.102;2023-04-03T05:37:56;8.88;;;8.55;;
79027;SDS011;68427;48.476;19.102;2023-04-03T05:40:22;4.38;;;4.18;;
79027;SDS011;68427;48.476;19.102;2023-04-03T05:42:48;5.63;;;5.43;;
79027;SDS011;68427;48.476;19.102;2023-04-03T05:45:14;6.43;;;6.22;;
79027;SDS011;68427;48.476;19.102;2023-04-03T05:47:41;4.93;;;4.72;;
79027;SDS011;68427;48.476;19.102;2023-04-03T05:50:07;4.82;;;4.53;;
79027;SDS011;68427;48.476;19.102;2023-04-03T05:52:35;4.47;;;4.28;;
79027;SDS011;68427;48.476;19.102;2023-04-03T05:55:03;5.75;;;5.55;;
79027;SDS011;68427;48.476;19.102;2023-04-03T05:57:29;4.93;;;4.80;;
79027;SDS011;68427;48.476;19.102;2023-04-03T05:59:55;5.70;;;5.50;;
79027;SDS011;68427;48.476;19.102;2023-04-03T06:02:21;4.68;;;4.53;;
79027;SDS011;68427;48.476;19.102;2023-04-03T06:04:49;4.35;;;4.20;;
79027;SDS011;68427;48.476;19.102;2023-04-03T06:07:16;4.78;;;4.57;;
79027;SDS011;68427;48.476;19.102;2023-04-03T06:12:09;3.75;;;3.60;;
79027;SDS011;68427;48.476;19.102;2023-04-03T06:14:34;3.70;;;3.53;;
79027;SDS011;68427;48.476;19.102;2023-04-03T06:17:00;1.65;;;1.65;;
79027;SDS011;68427;48.476;19.102;2023-04-03T06:19:26;4.93;;;4.72;;
79027;SDS011;68427;48.476;19.102;2023-04-03T06:21:54;4.15;;;4.05;;
79027;SDS011;68427;48.476;19.102;2023-04-03T06:24:20;3.03;;;2.92;;
79027;SDS011;68427;48.476;19.102;2023-04-03T06:26:48;0.98;;;0.98;;
79027;SDS011;68427;48.476;19.102;2023-04-03T06:29:14;1.13;;;1.10;;
79027;SDS011;68427;48.476;19.102;2023-04-03T06:31:40;1.35;;;1.25;;
79027;SDS011;68427;48.476;19.102;2023-04-03T06:34:06;3.75;;;3.65;;
79027;SDS011;68427;48.476;19.102;2023-04-03T06:36:32;3.55;;;3.45;;
79027;SDS011;68427;48.476;19.102;2023-04-03T06:38:59;0.90;;;0.90;;
79027;SDS011;68427;48.476;19.102;2023-04-03T06:41:25;1.35;;;1.25;;
79027;SDS011;68427;48.476;19.102;2023-04-03T06:43:51;4.95;;;4.75;;
79027;SDS011;68427;48.476;19.102;2023-04-03T06:46:17;3.97;;;3.88;;
79027;SDS011;68427;48.476;19.102;2023-04-03T06:48:45;1.52;;;1.42;;
79027;SDS011;68427;48.476;19.102;2023-04-03T06:51:15;4.28;;;4.10;;
79027;SDS011;68427;48.476;19.102;2023-04-03T06:53:43;4.97;;;4.78;;
79027;SDS011;68427;48.476;19.102;2023-04-03T06:56:10;2.92;;;2.83;;
79027;SDS011;68427;48.476;19.102;2023-04-03T06:58:36;4.22;;;4.03;;
79027;SDS011;68427;48.476;19.102;2023-04-03T07:01:02;0.52;;;0.50;;
79027;SDS011;68427;48.476;19.102;2023-04-03T07:03:28;3.03;;;2.92;;
79027;SDS011;68427;48.476;19.102;2023-04-03T07:05:53;0.90;;;0.90;;
79027;SDS011;68427;48.476;19.102;2023-04-03T07:08:20;2.88;;;2.78;;
79027;SDS011;68427;48.476;19.102;2023-04-03T07:10:48;0.77;;;0.50;;
79027;SDS011;68427;48.476;19.102;2023-04-03T07:13:15;0.90;;;0.90;;
79027;SDS011;68427;48.476;19.102;2023-04-03T07:15:40;3.08;;;2.97;;
79027;SDS011;68427;48.476;19.102;2023-04-03T07:18:06;1.45;;;0.80;;
79027;SDS011;68427;48.476;19.102;2023-04-03T07:20:32;1.27;;;0.40;;
79027;SDS011;68427;48.476;19.102;2023-04-03T07:22:58;0.80;;;0.30;;
79027;SDS011;68427;48.476;19.102;2023-04-03T07:25:23;0.95;;;0.95;;
79027;SDS011;68427;48.476;19.102;2023-04-03T07:27:49;1.02;;;0.80;;
79027;SDS011;68427;48.476;19.102;2023-04-03T07:30:16;0.68;;;0.45;;
79027;SDS011;68427;48.476;19.102;2023-04-03T07:32:42;2.13;;;2.03;;
79027;SDS011;68427;48.476;19.102;2023-04-03T07:35:08;0.57;;;0.40;;
79027;SDS011;68427;48.476;19.102;2023-04-03T07:37:34;0.73;;;0.40;;
79027;SDS011;68427;48.476;19.102;2023-04-03T07:40:00;0.43;;;0.43;;
79027;SDS011;68427;48.476;19.102;2023-04-03T07:42:28;0.75;;;0.47;;
79027;SDS011;68427;48.476;19.102;2023-04-03T07:44:54;2.80;;;2.70;;
79027;SDS011;68427;48.476;19.102;2023-04-03T07:47:21;0.47;;;0.40;;
79027;SDS011;68427;48.476;19.102;2023-04-03T07:49:47;0.77;;;0.75;;
79027;SDS011;68427;48.476;19.102;2023-04-03T07:52:13;0.50;;;0.40;;
79027;SDS011;68427;48.476;19.102;2023-04-03T07:54:42;0.95;;;0.30;;
79027;SDS011;68427;48.476;19.102;2023-04-03T07:57:07;0.40;;;0.38;;
79027;SDS011;68427;48.476;19.102;2023-04-03T07:59:33;2.97;;;2.78;;
79027;SDS011;68427;48.476;19.102;2023-04-03T08:01:59;0.95;;;0.95;;
79027;SDS011;68427;48.476;19.102;2023-04-03T08:04:26;0.57;;;0.32;;
79027;SDS011;68427;48.476;19.102;2023-04-03T08:06:52;0.80;;;0.50;;
79027;SDS011;68427;48.476;19.102;2023-04-03T08:09:18;0.40;;;0.38;;
79027;SDS011;68427;48.476;19.102;2023-04-03T08:11:44;0.60;;;0.55;;
79027;SDS011;68427;48.476;19.102;2023-04-03T08:14:10;0.85;;;0.50;;
79027;SDS011;68427;48.476;19.102;2023-04-03T08:16:41;2.92;;;2.83;;
79027;SDS011;68427;48.476;19.102;2023-04-03T08:19:08;0.73;;;0.73;;
79027;SDS011;68427;48.476;19.102;2023-04-03T08:24:02;0.63;;;0.57;;
79027;SDS011;68427;48.476;19.102;2023-04-03T08:26:29;3.42;;;3.33;;
79027;SDS011;68427;48.476;19.102;2023-04-03T08:28:55;0.30;;;0.25;;
79027;SDS011;68427;48.476;19.102;2023-04-03T08:31:20;0.50;;;0.50;;
79027;SDS011;68427;48.476;19.102;2023-04-03T08:33:46;0.40;;;0.30;;
79027;SDS011;68427;48.476;19.102;2023-04-03T08:36:16;0.57;;;0.52;;
79027;SDS011;68427;48.476;19.102;2023-04-03T08:38:45;0.40;;;0.30;;
79027;SDS011;68427;48.476;19.102;2023-04-03T08:41:13;0.65;;;0.38;;
79027;SDS011;68427;48.476;19.102;2023-04-03T08:43:43;0.55;;;0.55;;
79027;SDS011;68427;48.476;19.102;2023-04-03T08:46:22;0.35;;;0.30;;
79027;SDS011;68427;48.476;19.102;2023-04-03T08:48:51;0.60;;;0.32;;
79027;SDS011;68427;48.476;19.102;2023-04-03T08:51:19;0.40;;;0.40;;
79027;SDS011;68427;48.476;19.102;2023-04-03T08:53:49;0.60;;;0.60;;
79027;SDS011;68427;48.476;19.102;2023-04-03T08:56:21;0.93;;;0.80;;
79027;SDS011;68427;48.476;19.102;2023-04-03T08:58:50;1.50;;;0.10;;
79027;SDS011;68427;48.476;19.102;2023-04-03T09:01:21;0.65;;;0.65;;
79027;SDS011;68427;48.476;19.102;2023-04-03T09:03:51;1.98;;;1.88;;
79027;SDS011;68427;48.476;19.102;2023-04-03T09:06:18;0.82;;;0.82;;
79027;SDS011;68427;48.476;19.102;2023-04-03T09:08:49;0.38;;;0.38;;
79027;SDS011;68427;48.476;19.102;2023-04-03T09:11:24;0.52;;;0.52;;
79027;SDS011;68427;48.476;19.102;2023-04-03T09:13:54;1.42;;;0.40;;
79027;SDS011;68427;48.476;19.102;2023-04-03T09:16:28;0.93;;;0.28;;
79027;SDS011;68427;48.476;19.102;2023-04-03T09:19:05;0.55;;;0.30;;
79027;SDS011;68427;48.476;19.102;2023-04-03T09:21:41;0.60;;;0.30;;
79027;SDS011;68427;48.476;19.102;2023-04-03T09:24:09;0.45;;;0.43;;
79027;SDS011;68427;48.476;19.102;2023-04-03T09:26:39;0.50;;;0.50;;
79027;SDS011;68427;48.476;19.102;2023-04-03T09:29:10;0.57;;;0.52;;
79027;SDS011;68427;48.476;19.102;2023-04-03T09:31:43;0.35;;;0.10;;
79027;SDS011;68427;48.476;19.102;2023-04-03T09:34:15;1.08;;;0.40;;
79027;SDS011;68427;48.476;19.102;2023-04-03T09:36:47;0.73;;;0.55;;
79027;SDS011;68427;48.476;19.102;2023-04-03T09:39:17;0.50;;;0.30;;
79027;SDS011;68427;48.476;19.102;2023-04-03T09:41:55;0.30;;;0.20;;
79027;SDS011;68427;48.476;19.102;2023-04-03T09:44:26;0.47;;;0.20;;
79027;SDS011;68427;48.476;19.102;2023-04-03T09:46:53;2.83;;;2.70;;
79027;SDS011;68427;48.476;19.102;2023-04-03T09:49:20;0.82;;;0.60;;
79027;SDS011;68427;48.476;19.102;2023-04-03T09:54:30;0.32;;;0.32;;
79027;SDS011;68427;48.476;19.102;2023-04-03T09:56:58;0.28;;;0.28;;
79027;SDS011;68427;48.476;19.102;2023-04-03T09:59:29;2.75;;;2.65;;
79027;SDS011;68427;48.476;19.102;2023-04-03T10:01:57;0.68;;;0.50;;
79027;SDS011;68427;48.476;19.102;2023-04-03T10:04:24;2.15;;;2.05;;
79027;SDS011;68427;48.476;19.102;2023-04-03T10:06:50;0.40;;;0.40;;
79027;SDS011;68427;48.476;19.102;2023-04-03T10:12:00;0.47;;;0.30;;
79027;SDS011;68427;48.476;19.102;2023-04-03T10:14:29;0.60;;;0.40;;
79027;SDS011;68427;48.476;19.102;2023-04-03T10:16:58;0.55;;;0.55;;
79027;SDS011;68427;48.476;19.102;2023-04-03T10:19:34;0.32;;;0.30;;
79027;SDS011;68427;48.476;19.102;2023-04-03T10:22:08;0.28;;;0.10;;
79027;SDS011;68427;48.476;19.102;2023-04-03T10:24:44;3.50;;;3.25;;
79027;SDS011;68427;48.476;19.102;2023-04-03T10:27:19;2.88;;;2.78;;
79027;SDS011;68427;48.476;19.102;2023-04-03T10:29:55;0.50;;;0.20;;
79027;SDS011;68427;48.476;19.102;2023-04-03T10:32:38;0.55;;;0.32;;
79027;SDS011;68427;48.476;19.102;2023-04-03T10:35:16;3.03;;;2.92;;
79027;SDS011;68427;48.476;19.102;2023-04-03T10:37:54;0.40;;;0.10;;
79027;SDS011;68427;48.476;19.102;2023-04-03T10:40:29;0.28;;;0.20;;
79027;SDS011;68427;48.476;19.102;2023-04-03T10:43:01;2.38;;;2.28;;
79027;SDS011;68427;48.476;19.102;2023-04-03T10:45:42;1.05;;;0.43;;
79027;SDS011;68427;48.476;19.102;2023-04-03T10:48:18;2.35;;;2.25;;
79027;SDS011;68427;48.476;19.102;2023-04-03T10:50:58;0.90;;;0.90;;
79027;SDS011;68427;48.476;19.102;2023-04-03T10:53:33;0.68;;;0.63;;
79027;SDS011;68427;48.476;19.102;2023-04-03T10:56:05;0.88;;;0.88;;
79027;SDS011;68427;48.476;19.102;2023-04-03T10:58:39;0.43;;;0.28;;
79027;SDS011;68427;48.476;19.102;2023-04-03T11:01:09;0.47;;;0.20;;
79027;SDS011;68427;48.476;19.102;2023-04-03T11:03:40;0.93;;;0.93;;
79027;SDS011;68427;48.476;19.102;2023-04-03T11:06:10;1.48;;;0.20;;
79027;SDS011;68427;48.476;19.102;2023-04-03T11:08:38;0.80;;;0.50;;
79027;SDS011;68427;48.476;19.102;2023-04-03T11:11:09;0.88;;;0.22;;
79027;SDS011;68427;48.476;19.102;2023-04-03T11:13:41;0.57;;;0.32;;
79027;SDS011;68427;48.476;19.102;2023-04-03T11:16:13;1.00;;;0.60;;
79027;SDS011;68427;48.476;19.102;2023-04-03T11:18:45;1.33;;;0.30;;
79027;SDS011;68427;48.476;19.102;2023-04-03T11:21:16;2.58;;;2.47;;
79027;SDS011;68427;48.476;19.102;2023-04-03T11:23:48;0.98;;;0.30;;
79027;SDS011;68427;48.476;19.102;2023-04-03T11:26:16;1.05;;;1.05;;
79027;SDS011;68427;48.476;19.102;2023-04-03T11:28:47;0.95;;;0.95;;
79027;SDS011;68427;48.476;19.102;2023-04-03T11:31:38;1.35;;;1.33;;
79027;SDS011;68427;48.476;19.102;2023-04-03T11:34:19;1.75;;;0.35;;
79027;SDS011;68427;48.476;19.102;2023-04-03T11:36:54;1.00;;;0.30;;
79027;SDS011;68427;48.476;19.102;2023-04-03T11:39:25;0.50;;;0.30;;
79027;SDS011;68427;48.476;19.102;2023-04-03T11:41:54;1.02;;;0.93;;
79027;SDS011;68427;48.476;19.102;2023-04-03T11:44:35;0.52;;;0.13;;
79027;SDS011;68427;48.476;19.102;2023-04-03T11:47:02;3.60;;;0.28;;
79027;SDS011;68427;48.476;19.102;2023-04-03T11:58:16;0.90;;;0.43;;
79027;SDS011;68427;48.476;19.102;2023-04-03T12:00:54;1.30;;;0.30;;
79027;SDS011;68427;48.476;19.102;2023-04-03T12:03:29;1.45;;;1.13;;
79027;SDS011;68427;48.476;19.102;2023-04-03T12:05:56;0.82;;;0.20;;
79027;SDS011;68427;48.476;19.102;2023-04-03T12:08:45;0.63;;;0.40;;
79027;SDS011;68427;48.476;19.102;2023-04-03T12:11:15;0.50;;;0.40;;
79027;SDS011;68427;48.476;19.102;2023-04-03T12:14:02;0.80;;;0.40;;
79027;SDS011;68427;48.476;19.102;2023-04-03T12:16:29;1.92;;;0.85;;
79027;SDS011;68427;48.476;19.102;2023-04-03T12:18:58;1.23;;;0.32;;
79027;SDS011;68427;48.476;19.102;2023-04-03T12:24:34;0.65;;;0.30;;
79027;SDS011;68427;48.476;19.102;2023-04-03T12:30:03;0.80;;;0.30;;
79027;SDS011;68427;48.476;19.102;2023-04-03T12:32:35;0.95;;;0.32;;
79027;SDS011;68427;48.476;19.102;2023-04-03T12:35:14;1.48;;;0.30;;
79027;SDS011;68427;48.476;19.102;2023-04-03T12:40:48;1.08;;;0.98;;
79027;SDS011;68427;48.476;19.102;2023-04-03T12:43:27;1.23;;;0.63;;
79027;SDS011;68427;48.476;19.102;2023-04-03T12:46:04;1.30;;;0.20;;
79027;SDS011;68427;48.476;19.102;2023-04-03T12:48:46;0.52;;;0.25;;
79027;SDS011;68427;48.476;19.102;2023-04-03T12:51:13;1.00;;;0.55;;
79027;SDS011;68427;48.476;19.102;2023-04-03T12:53:41;1.40;;;0.55;;
79027;SDS011;68427;48.476;19.102;2023-04-03T12:56:20;1.40;;;0.68;;
79027;SDS011;68427;48.476;19.102;2023-04-03T12:58:48;0.75;;;0.30;;
79027;SDS011;68427;48.476;19.102;2023-04-03T13:01:16;1.63;;;0.25;;
79027;SDS011;68427;48.476;19.102;2023-04-03T13:03:44;1.00;;;0.45;;
79027;SDS011;68427;48.476;19.102;2023-04-03T13:06:14;2.10;;;0.40;;
79027;SDS011;68427;48.476;19.102;2023-04-03T13:08:48;3.13;;;3.03;;
79027;SDS011;68427;48.476;19.102;2023-04-03T13:11:14;1.13;;;0.43;;
79027;SDS011;68427;48.476;19.102;2023-04-03T13:13:47;1.00;;;0.47;;
79027;SDS011;68427;48.476;19.102;2023-04-03T13:16:19;1.60;;;0.47;;
79027;SDS011;68427;48.476;19.102;2023-04-03T13:18:47;1.45;;;0.40;;
79027;SDS011;68427;48.476;19.102;2023-04-03T13:21:16;0.73;;;0.73;;
79027;SDS011;68427;48.476;19.102;2023-04-03T13:23:45;2.80;;;1.13;;
79027;SDS011;68427;48.476;19.102;2023-04-03T13:26:14;0.82;;;0.55;;
79027;SDS011;68427;48.476;19.102;2023-04-03T13:28:42;1.00;;;0.55;;
79027;SDS011;68427;48.476;19.102;2023-04-03T13:31:16;1.20;;;0.95;;
79027;SDS011;68427;48.476;19.102;2023-04-03T13:33:52;1.42;;;1.15;;
79027;SDS011;68427;48.476;19.102;2023-04-03T13:36:21;3.25;;;3.05;;
79027;SDS011;68427;48.476;19.102;2023-04-03T13:38:57;1.05;;;0.73;;
79027;SDS011;68427;48.476;19.102;2023-04-03T13:41:25;1.65;;;0.93;;
79027;SDS011;68427;48.476;19.102;2023-04-03T13:43:55;1.88;;;1.63;;
79027;SDS011;68427;48.476;19.102;2023-04-03T13:46:24;1.42;;;0.85;;
79027;SDS011;68427;48.476;19.102;2023-04-03T13:48:52;4.80;;;4.60;;
79027;SDS011;68427;48.476;19.102;2023-04-03T13:51:21;1.80;;;0.57;;
79027;SDS011;68427;48.476;19.102;2023-04-03T13:53:50;3.42;;;3.22;;
79027;SDS011;68427;48.476;19.102;2023-04-03T13:56:19;1.63;;;0.60;;
79027;SDS011;68427;48.476;19.102;2023-04-03T13:58:53;1.48;;;0.70;;
79027;SDS011;68427;48.476;19.102;2023-04-03T14:01:23;1.38;;;1.27;;
79027;SDS011;68427;48.476;19.102;2023-04-03T14:03:52;1.65;;;1.55;;
79027;SDS011;68427;48.476;19.102;2023-04-03T14:06:21;3.25;;;3.05;;
79027;SDS011;68427;48.476;19.102;2023-04-03T14:08:47;3.45;;;1.20;;
79027;SDS011;68427;48.476;19.102;2023-04-03T14:11:15;1.48;;;1.08;;
79027;SDS011;68427;48.476;19.102;2023-04-03T14:13:43;2.03;;;0.88;;
79027;SDS011;68427;48.476;19.102;2023-04-03T14:16:14;1.58;;;0.52;;
79027;SDS011;68427;48.476;19.102;2023-04-03T14:18:43;4.05;;;3.75;;
79027;SDS011;68427;48.476;19.102;2023-04-03T14:21:10;2.00;;;0.30;;
79027;SDS011;68427;48.476;19.102;2023-04-03T14:26:04;4.03;;;3.83;;
79027;SDS011;68427;48.476;19.102;2023-04-03T14:28:31;1.10;;;0.85;;
79027;SDS011;68427;48.476;19.102;2023-04-03T14:30:57;4.60;;;4.28;;
79027;SDS011;68427;48.476;19.102;2023-04-03T14:33:23;1.58;;;1.48;;
79027;SDS011;68427;48.476;19.102;2023-04-03T14:35:52;2.80;;;1.63;;
79027;SDS011;68427;48.476;19.102;2023-04-03T14:38:21;1.20;;;1.10;;
79027;SDS011;68427;48.476;19.102;2023-04-03T14:40:49;4.38;;;4.18;;
79027;SDS011;68427;48.476;19.102;2023-04-03T14:43:15;4.63;;;4.35;;
79027;SDS011;68427;48.476;19.102;2023-04-03T14:45:41;1.20;;;0.68;;
79027;SDS011;68427;48.476;19.102;2023-04-03T14:48:09;5.40;;;5.10;;
79027;SDS011;68427;48.476;19.102;2023-04-03T14:50:41;2.30;;;0.95;;
79027;SDS011;68427;48.476;19.102;2023-04-03T14:53:10;4.40;;;4.13;;
79027;SDS011;68427;48.476;19.102;2023-04-03T14:55:38;4.78;;;4.50;;
79027;SDS011;68427;48.476;19.102;2023-04-03T14:58:03;1.42;;;0.82;;
79027;SDS011;68427;48.476;19.102;2023-04-03T15:00:29;4.00;;;3.80;;
79027;SDS011;68427;48.476;19.102;2023-04-03T15:02:55;4.00;;;3.80;;
79027;SDS011;68427;48.476;19.102;2023-04-03T15:05:21;2.90;;;2.70;;
79027;SDS011;68427;48.476;19.102;2023-04-03T15:07:48;3.47;;;3.28;;
79027;SDS011;68427;48.476;19.102;2023-04-03T15:10:18;1.27;;;1.08;;
79027;SDS011;68427;48.476;19.102;2023-04-03T15:12:46;5.88;;;5.57;;
79027;SDS011;68427;48.476;19.102;2023-04-03T15:15:12;1.67;;;1.58;;
79027;SDS011;68427;48.476;19.102;2023-04-03T15:17:39;2.45;;;1.20;;